createdAt,value
2022-11-19T00:02:10.547Z,0.50
2022-11-19T00:04:38.880Z,0.50
2022-11-19T00:07:07.273Z,0.50
2022-11-19T00:09:37.101Z,0.50
2022-11-19T00:12:19.668Z,0.40
2022-11-19T00:14:47.939Z,0.40
2022-11-19T00:17:16.297Z,0.40
2022-11-19T00:19:44.830Z,0.40
2022-11-19T00:22:13.254Z,0.40
2022-11-19T00:24:43.000Z,0.40
2022-11-19T00:27:11.352Z,0.40
2022-11-19T00:29:39.717Z,0.40
2022-11-19T00:32:08.106Z,0.40
2022-11-19T00:34:36.426Z,0.40
2022-11-19T00:37:04.696Z,0.30
2022-11-19T00:39:33.006Z,0.30
2022-11-19T00:42:02.747Z,0.30
2022-11-19T00:44:36.827Z,0.30
2022-11-19T00:47:06.055Z,0.30
2022-11-19T00:49:34.387Z,0.30
2022-11-19T00:52:02.869Z,0.30
2022-11-19T00:54:31.299Z,0.30
2022-11-19T00:56:59.621Z,0.30
2022-11-19T00:59:29.286Z,0.30
2022-11-19T01:01:57.581Z,0.30
2022-11-19T01:04:26.021Z,0.30
2022-11-19T01:06:54.411Z,0.30
2022-11-19T01:09:22.836Z,0.30
2022-11-19T01:11:51.074Z,0.30
2022-11-19T01:14:19.345Z,0.30
2022-11-19T01:16:49.088Z,0.30
2022-11-19T01:19:17.765Z,0.30
2022-11-19T01:21:46.391Z,0.30
2022-11-19T01:24:14.612Z,0.20
2022-11-19T01:26:45.861Z,0.20
2022-11-19T01:29:14.695Z,0.20
2022-11-19T01:31:43.202Z,0.30
2022-11-19T01:34:12.911Z,0.20
2022-11-19T01:36:41.209Z,0.20
2022-11-19T01:39:09.565Z,0.20
2022-11-19T01:41:38.009Z,0.20
2022-11-19T01:44:09.746Z,0.20
2022-11-19T01:46:39.908Z,0.20
2022-11-19T01:49:11.728Z,0.20
2022-11-19T01:51:45.831Z,0.20
2022-11-19T01:54:19.177Z,0.20
2022-11-19T01:56:47.579Z,0.20
2022-11-19T01:59:19.642Z,0.20
2022-11-19T02:01:48.235Z,0.20
2022-11-19T02:04:19.335Z,0.20
2022-11-19T02:06:49.453Z,0.10
2022-11-19T02:09:18.242Z,0.10
2022-11-19T02:12:14.347Z,0.10
2022-11-19T02:14:57.868Z,0.10
2022-11-19T02:17:45.981Z,0.10
2022-11-19T02:20:41.695Z,0.10
2022-11-19T02:23:53.422Z,0.00
2022-11-19T02:26:47.174Z,0.00
2022-11-19T02:29:32.067Z,0.00
2022-11-19T02:32:04.256Z,0.00
2022-11-19T02:34:39.255Z,0.00
2022-11-19T02:37:20.948Z,0.00
2022-11-19T02:39:53.056Z,0.00
2022-11-19T02:42:27.492Z,0.00
2022-11-19T02:45:02.570Z,0.00
2022-11-19T02:47:37.761Z,0.00
2022-11-19T02:50:10.539Z,-0.10
2022-11-19T02:52:39.612Z,-0.10
2022-11-19T02:55:09.194Z,-0.10
2022-11-19T02:57:38.454Z,-0.10
2022-11-19T03:00:26.303Z,0.00
2022-11-19T03:03:18.235Z,0.00
2022-11-19T03:05:51.403Z,-0.10
2022-11-19T03:08:20.030Z,0.00
2022-11-19T03:10:58.352Z,-0.10
2022-11-19T03:13:49.463Z,0.00
2022-11-19T03:16:43.890Z,0.00
2022-11-19T03:19:27.019Z,0.00
2022-11-19T03:21:59.670Z,0.00
2022-11-19T03:24:33.862Z,0.00
2022-11-19T03:27:05.613Z,0.00
2022-11-19T03:29:38.365Z,-0.10
2022-11-19T03:32:12.538Z,0.00
2022-11-19T03:34:44.446Z,-0.10
2022-11-19T03:37:14.860Z,-0.10
2022-11-19T03:39:45.264Z,-0.10
2022-11-19T03:42:15.984Z,-0.10
2022-11-19T03:44:48.132Z,-0.10
2022-11-19T03:47:19.699Z,-0.10
2022-11-19T03:49:54.278Z,-0.10
2022-11-19T03:52:23.207Z,0.00
2022-11-19T03:54:51.528Z,0.00
2022-11-19T03:57:22.950Z,0.00
2022-11-19T03:59:51.280Z,0.00
2022-11-19T04:02:19.973Z,0.00
2022-11-19T04:04:49.727Z,0.00
2022-11-19T04:07:20.325Z,0.00
2022-11-19T04:09:49.476Z,0.00
2022-11-19T04:12:20.346Z,0.00
2022-11-19T04:14:49.003Z,0.00
2022-11-19T04:17:18.220Z,0.00
2022-11-19T04:19:46.958Z,0.00
2022-11-19T04:22:16.733Z,0.00
2022-11-19T04:24:45.102Z,0.00
2022-11-19T04:27:13.371Z,0.00
2022-11-19T04:29:41.650Z,0.00
2022-11-19T04:32:09.919Z,0.00
2022-11-19T04:34:38.319Z,0.00
2022-11-19T04:37:06.683Z,0.00
2022-11-19T04:39:36.351Z,0.10
2022-11-19T04:42:04.697Z,0.00
2022-11-19T04:44:33.241Z,0.10
2022-11-19T04:47:01.588Z,0.10
2022-11-19T04:49:29.962Z,0.10
2022-11-19T04:51:58.220Z,0.10
2022-11-19T04:54:26.507Z,0.10
2022-11-19T04:56:56.250Z,0.10
2022-11-19T04:59:24.742Z,0.10
2022-11-19T05:01:53.236Z,0.10
2022-11-19T05:04:21.545Z,0.10
2022-11-19T05:06:49.953Z,0.10
2022-11-19T05:09:18.617Z,0.10
2022-11-19T05:11:47.315Z,0.10
2022-11-19T05:14:17.320Z,0.10
2022-11-19T05:16:45.633Z,0.10
2022-11-19T05:19:13.968Z,0.10
2022-11-19T05:21:42.303Z,0.10
2022-11-19T05:24:10.907Z,0.10
2022-11-19T05:26:39.306Z,0.10
2022-11-19T05:29:07.574Z,0.10
2022-11-19T05:31:37.219Z,0.10
2022-11-19T05:34:05.553Z,0.10
2022-11-19T05:36:34.010Z,0.10
2022-11-19T05:39:02.397Z,0.10
2022-11-19T05:41:30.665Z,0.10
2022-11-19T05:43:58.923Z,0.10
2022-11-19T05:46:27.289Z,0.10
2022-11-19T05:48:57.391Z,0.10
2022-11-19T05:51:26.406Z,0.10
2022-11-19T05:53:54.725Z,0.20
2022-11-19T05:56:23.145Z,0.10
2022-11-19T05:58:51.422Z,0.20
2022-11-19T06:01:26.357Z,0.20
2022-11-19T06:03:56.246Z,0.20
2022-11-19T06:06:25.591Z,0.20
2022-11-19T06:08:54.145Z,0.20
2022-11-19T06:11:39.568Z,0.20
2022-11-19T06:14:08.207Z,0.10
2022-11-19T06:16:36.539Z,0.10
2022-11-19T06:19:06.231Z,0.10
2022-11-19T06:21:34.544Z,0.10
2022-11-19T06:24:02.903Z,0.10
2022-11-19T06:26:31.497Z,0.10
2022-11-19T06:28:59.738Z,0.20
2022-11-19T06:31:28.168Z,0.20
2022-11-19T06:33:56.564Z,0.20
2022-11-19T06:36:27.723Z,0.20
2022-11-19T06:38:56.287Z,0.20
2022-11-19T06:41:24.598Z,0.20
2022-11-19T06:43:52.899Z,0.20
2022-11-19T06:46:21.177Z,0.30
2022-11-19T06:48:49.484Z,0.30
2022-11-19T06:51:17.886Z,0.30
2022-11-19T06:53:47.563Z,0.40
2022-11-19T06:56:15.873Z,0.50
2022-11-19T06:58:44.211Z,0.50
2022-11-19T07:01:14.423Z,0.60
2022-11-19T07:03:42.894Z,0.60
2022-11-19T07:06:11.276Z,0.70
2022-11-19T07:08:39.763Z,0.80
2022-11-19T07:11:23.242Z,0.80
2022-11-19T07:14:01.167Z,0.90
2022-11-19T07:16:31.287Z,1.00
2022-11-19T07:19:00.308Z,1.00
2022-11-19T07:21:29.156Z,1.10
2022-11-19T07:23:58.284Z,1.10
2022-11-19T07:26:28.262Z,1.20
2022-11-19T07:29:01.770Z,1.20
2022-11-19T07:31:33.232Z,1.30
2022-11-19T07:34:01.574Z,1.30
2022-11-19T07:36:30.070Z,1.40
2022-11-19T07:38:59.386Z,1.50
2022-11-19T07:41:46.370Z,1.50
2022-11-19T07:44:14.745Z,1.60
2022-11-19T07:46:43.335Z,1.60
2022-11-19T07:49:11.862Z,1.70
2022-11-19T07:51:40.139Z,1.80
2022-11-19T07:54:09.336Z,1.80
2022-11-19T07:56:39.324Z,1.90
2022-11-19T07:59:07.945Z,2.00
2022-11-19T08:01:36.275Z,2.00
2022-11-19T08:04:05.371Z,2.00
2022-11-19T08:06:34.723Z,2.10
2022-11-19T08:09:03.998Z,2.20
2022-11-19T08:11:32.841Z,2.20
2022-11-19T08:14:02.775Z,2.30
2022-11-19T08:16:50.718Z,2.30
2022-11-19T08:19:19.673Z,2.40
2022-11-19T08:21:49.325Z,2.40
2022-11-19T08:24:20.200Z,2.40
2022-11-19T08:26:49.028Z,2.40
2022-11-19T08:29:22.009Z,2.50
2022-11-19T08:31:50.884Z,2.60
2022-11-19T08:34:19.912Z,2.60
2022-11-19T08:36:48.339Z,2.60
2022-11-19T08:39:16.651Z,2.70
2022-11-19T08:42:02.287Z,2.80
2022-11-19T08:44:31.992Z,2.80
2022-11-19T08:47:00.248Z,2.90
2022-11-19T08:49:28.499Z,3.00
2022-11-19T08:51:57.610Z,3.10
2022-11-19T08:54:26.197Z,3.20
2022-11-19T08:56:54.563Z,3.30
2022-11-19T08:59:22.939Z,3.40
2022-11-19T09:01:52.882Z,3.40
2022-11-19T09:04:21.546Z,3.40
2022-11-19T09:06:50.062Z,3.40
2022-11-19T09:09:18.450Z,3.40
2022-11-19T09:11:46.917Z,3.30
2022-11-19T09:14:15.236Z,3.30
2022-11-19T09:16:43.776Z,3.30
2022-11-19T09:19:13.551Z,3.40
2022-11-19T09:21:41.932Z,3.50
2022-11-19T09:24:10.262Z,3.50
2022-11-19T09:26:38.535Z,3.50
2022-11-19T09:29:09.303Z,3.40
2022-11-19T09:31:37.650Z,3.50
2022-11-19T09:34:05.999Z,3.50
2022-11-19T09:36:35.694Z,3.60
2022-11-19T09:39:04.002Z,3.70
2022-11-19T09:41:45.151Z,3.70
2022-11-19T09:44:34.372Z,3.90
2022-11-19T09:47:18.804Z,4.00
2022-11-19T09:49:58.056Z,4.10
2022-11-19T09:52:33.917Z,4.10
2022-11-19T09:55:03.326Z,4.00
2022-11-19T09:57:38.066Z,4.10
2022-11-19T10:00:10.046Z,4.00
2022-11-19T10:02:38.401Z,4.00
2022-11-19T10:05:07.601Z,4.00
2022-11-19T10:07:45.405Z,4.00
2022-11-19T10:10:26.238Z,4.00
2022-11-19T10:13:13.126Z,4.10
2022-11-19T10:15:53.159Z,4.10
2022-11-19T10:18:49.170Z,4.20
2022-11-19T10:21:26.394Z,4.20
2022-11-19T10:24:04.849Z,4.30
2022-11-19T10:26:36.490Z,4.30
2022-11-19T10:29:15.341Z,4.40
2022-11-19T10:31:46.961Z,4.40
2022-11-19T10:34:21.318Z,4.40
2022-11-19T10:36:56.056Z,4.50
2022-11-19T10:39:32.451Z,4.60
2022-11-19T10:42:10.224Z,4.70
2022-11-19T10:44:42.139Z,4.70
2022-11-19T10:47:17.803Z,4.80
2022-11-19T10:49:46.757Z,4.90
2022-11-19T10:52:25.419Z,4.90
2022-11-19T10:54:58.587Z,5.00
2022-11-19T10:57:30.203Z,5.00
2022-11-19T10:59:59.153Z,5.00
2022-11-19T11:02:34.039Z,5.00
2022-11-19T11:05:07.498Z,5.00
2022-11-19T11:07:51.867Z,5.00
2022-11-19T11:10:38.653Z,5.00
2022-11-19T11:13:33.347Z,5.00
2022-11-19T11:16:08.062Z,5.00
2022-11-19T11:18:40.572Z,5.10
2022-11-19T11:21:14.248Z,5.10
2022-11-19T11:23:52.217Z,5.20
2022-11-19T11:26:24.475Z,5.10
2022-11-19T11:28:58.859Z,5.10
2022-11-19T11:31:33.593Z,5.00
2022-11-19T11:34:02.779Z,5.00
2022-11-19T11:36:34.534Z,4.90
2022-11-19T11:39:04.480Z,4.80
2022-11-19T11:44:30.304Z,4.80
2022-11-19T11:47:01.986Z,4.90
2022-11-19T11:49:35.092Z,4.90
2022-11-19T11:52:08.329Z,5.00
2022-11-19T11:54:37.446Z,5.00
2022-11-19T11:57:19.687Z,5.00
2022-11-19T11:59:48.429Z,5.10
2022-11-19T12:02:23.720Z,5.20
2022-11-19T12:04:53.042Z,5.20
2022-11-19T12:07:47.795Z,5.20
2022-11-19T12:10:26.541Z,5.30
2022-11-19T12:13:18.119Z,5.40
2022-11-19T12:15:54.143Z,5.50
2022-11-19T12:18:33.567Z,5.70
2022-11-19T12:21:11.439Z,5.80
2022-11-19T12:24:04.080Z,5.90
2022-11-19T12:26:40.238Z,5.90
2022-11-19T12:29:22.861Z,6.00
2022-11-19T12:32:10.289Z,6.00
2022-11-19T12:35:07.774Z,6.00
2022-11-19T12:37:52.779Z,6.00
2022-11-19T12:40:39.071Z,6.00
2022-11-19T12:43:22.536Z,5.90
2022-11-19T12:45:59.320Z,5.90
2022-11-19T12:48:45.975Z,5.90
2022-11-19T12:51:29.366Z,5.80
2022-11-19T12:54:15.976Z,5.80
2022-11-19T12:56:54.351Z,5.70
2022-11-19T12:59:39.095Z,5.60
2022-11-19T13:02:19.480Z,5.70
2022-11-19T13:04:53.960Z,5.70
2022-11-19T13:07:26.413Z,5.70
2022-11-19T13:10:01.058Z,5.70
2022-11-19T13:12:35.464Z,5.70
2022-11-19T13:15:07.700Z,5.70
2022-11-19T13:17:41.629Z,5.70
2022-11-19T13:20:18.692Z,5.70
2022-11-19T13:22:50.980Z,5.70
2022-11-19T13:25:24.100Z,5.60
2022-11-19T13:27:54.918Z,5.70
2022-11-19T13:30:26.871Z,5.70
2022-11-19T13:33:03.633Z,5.70
2022-11-19T13:35:36.791Z,5.70
2022-11-19T13:38:16.947Z,5.70
2022-11-19T13:40:47.949Z,5.70
2022-11-19T13:43:37.081Z,5.70
2022-11-19T13:46:19.187Z,5.70
2022-11-19T13:48:55.777Z,5.70
2022-11-19T13:51:33.244Z,5.70
2022-11-19T13:54:04.013Z,5.60
2022-11-19T13:56:47.034Z,5.60
2022-11-19T13:59:38.234Z,5.60
2022-11-19T14:02:38.443Z,5.60
2022-11-19T14:05:30.540Z,5.60
2022-11-19T14:08:17.168Z,5.50
2022-11-19T14:10:58.360Z,5.50
2022-11-19T14:13:40.608Z,5.40
2022-11-19T14:16:39.487Z,5.40
2022-11-19T14:19:32.229Z,5.40
2022-11-19T14:22:20.003Z,5.30
2022-11-19T14:25:17.888Z,5.30
2022-11-19T14:27:46.474Z,5.30
2022-11-19T14:30:20.268Z,5.20
2022-11-19T14:32:51.519Z,5.20
2022-11-19T14:35:34.765Z,5.10
2022-11-19T14:38:22.483Z,5.10
2022-11-19T14:41:04.442Z,5.00
2022-11-19T14:43:49.897Z,5.00
2022-11-19T14:46:25.733Z,4.90
2022-11-19T14:49:01.455Z,4.90
2022-11-19T14:51:33.640Z,4.80
2022-11-19T14:54:06.882Z,4.80
2022-11-19T14:56:38.308Z,4.70
2022-11-19T14:59:19.592Z,4.70
2022-11-19T15:02:02.076Z,4.70
2022-11-19T15:04:35.873Z,4.60
2022-11-19T15:07:10.190Z,4.60
2022-11-19T15:10:05.696Z,4.60
2022-11-19T15:12:49.080Z,4.50
2022-11-19T15:15:38.695Z,4.40
2022-11-19T15:18:44.148Z,4.40
2022-11-19T15:21:39.592Z,4.40
2022-11-19T15:24:17.268Z,4.30
2022-11-19T15:26:55.899Z,4.30
2022-11-19T15:29:34.890Z,4.30
2022-11-19T15:32:20.315Z,4.30
2022-11-19T15:35:12.405Z,4.30
2022-11-19T15:37:47.596Z,4.30
2022-11-19T15:40:20.922Z,4.30
2022-11-19T15:43:05.858Z,4.30
2022-11-19T15:45:40.628Z,4.30
2022-11-19T15:48:14.074Z,4.20
2022-11-19T15:50:44.225Z,4.30
2022-11-19T15:53:18.868Z,4.20
2022-11-19T15:55:54.235Z,4.20
2022-11-19T15:58:27.612Z,4.20
2022-11-19T16:00:56.796Z,4.20
2022-11-19T16:03:25.966Z,4.20
2022-11-19T16:06:04.063Z,4.20
2022-11-19T16:08:33.117Z,4.20
2022-11-19T16:11:20.729Z,4.20
2022-11-19T16:14:12.024Z,4.20
2022-11-19T16:16:58.296Z,4.20
2022-11-19T16:19:26.597Z,4.20
2022-11-19T16:21:58.740Z,4.20
2022-11-19T16:24:46.159Z,4.20
2022-11-19T16:27:21.722Z,4.20
2022-11-19T16:29:52.871Z,4.20
2022-11-19T16:32:23.211Z,4.20
2022-11-19T16:34:51.657Z,4.20
2022-11-19T16:37:22.947Z,4.20
2022-11-19T16:39:53.490Z,4.20
2022-11-19T16:42:27.037Z,4.20
2022-11-19T16:45:06.253Z,4.20
2022-11-19T16:47:38.652Z,4.20
2022-11-19T16:50:08.397Z,4.20
2022-11-19T16:52:38.897Z,4.10
2022-11-19T16:55:09.909Z,4.10
2022-11-19T16:57:38.196Z,4.10
2022-11-19T17:00:18.658Z,4.10
2022-11-19T17:02:48.048Z,4.10
2022-11-19T17:05:19.126Z,4.10
2022-11-19T17:07:50.580Z,4.10
2022-11-19T17:10:30.641Z,4.10
2022-11-19T17:13:02.884Z,4.10
2022-11-19T17:15:39.509Z,4.10
2022-11-19T17:18:18.827Z,4.10
2022-11-19T17:20:51.809Z,4.10
2022-11-19T17:23:21.882Z,4.10
2022-11-19T17:25:52.443Z,4.10
2022-11-19T17:28:22.746Z,4.10
2022-11-19T17:30:52.670Z,4.10
2022-11-19T17:33:23.360Z,4.10
2022-11-19T17:35:52.295Z,4.10
2022-11-19T17:38:24.061Z,4.10
2022-11-19T17:40:54.308Z,4.10
2022-11-19T17:43:42.642Z,4.10
2022-11-19T17:46:12.647Z,4.10
2022-11-19T17:48:43.044Z,4.10
2022-11-19T17:51:12.959Z,4.10
2022-11-19T17:53:41.647Z,4.10
2022-11-19T17:56:18.543Z,4.10
2022-11-19T17:58:46.907Z,4.20
2022-11-19T18:01:17.736Z,4.20
2022-11-19T18:03:46.336Z,4.20
2022-11-19T18:06:16.014Z,4.30
2022-11-19T18:08:44.888Z,4.30
2022-11-19T18:11:14.879Z,4.30
2022-11-19T18:13:45.001Z,4.30
2022-11-19T18:16:19.737Z,4.30
2022-11-19T18:18:48.172Z,4.30
2022-11-19T18:21:18.194Z,4.40
2022-11-19T18:23:47.235Z,4.40
2022-11-19T18:26:18.521Z,4.40
2022-11-19T18:28:49.143Z,4.40
2022-11-19T18:31:20.756Z,4.40
2022-11-19T18:33:49.920Z,4.40
2022-11-19T18:36:18.853Z,4.40
2022-11-19T18:38:47.213Z,4.40
2022-11-19T18:41:18.986Z,4.50
2022-11-19T18:44:04.985Z,4.50
2022-11-19T18:46:35.069Z,4.50
2022-11-19T18:49:03.385Z,4.50
2022-11-19T18:51:33.024Z,4.50
2022-11-19T18:54:01.299Z,4.50
2022-11-19T18:56:29.629Z,4.40
2022-11-19T18:59:01.838Z,4.40
2022-11-19T19:01:34.393Z,4.50
2022-11-19T19:04:02.921Z,4.50
2022-11-19T19:06:31.399Z,4.50
2022-11-19T19:09:00.085Z,4.50
2022-11-19T19:11:45.855Z,4.50
2022-11-19T19:14:14.633Z,4.50
2022-11-19T19:16:44.543Z,4.50
2022-11-19T19:19:17.283Z,4.50
2022-11-19T19:21:45.679Z,4.50
2022-11-19T19:24:14.127Z,4.50
2022-11-19T19:26:42.665Z,4.50
2022-11-19T19:29:11.365Z,4.50
2022-11-19T19:31:39.801Z,4.50
2022-11-19T19:34:09.767Z,4.50
2022-11-19T19:36:38.347Z,4.50
2022-11-19T19:39:11.920Z,4.50
2022-11-19T19:41:40.242Z,4.50
2022-11-19T19:44:10.429Z,4.50
2022-11-19T19:46:38.812Z,4.50
2022-11-19T19:49:08.703Z,4.60
2022-11-19T19:51:37.124Z,4.50
2022-11-19T19:54:05.771Z,4.50
2022-11-19T19:56:34.385Z,4.50
2022-11-19T19:59:03.404Z,4.50
2022-11-19T20:01:33.078Z,4.60
2022-11-19T20:04:02.824Z,4.60
2022-11-19T20:06:32.659Z,4.60
2022-11-19T20:09:05.659Z,4.70
2022-11-19T20:11:36.680Z,4.60
2022-11-19T20:14:06.117Z,4.70
2022-11-19T20:16:35.342Z,4.70
2022-11-19T20:19:03.790Z,4.70
2022-11-19T20:21:36.419Z,4.70
2022-11-19T20:24:11.779Z,4.70
2022-11-19T20:26:42.193Z,4.70
2022-11-19T20:29:14.500Z,4.70
2022-11-19T20:31:47.283Z,4.70
2022-11-19T20:34:16.481Z,4.70
2022-11-19T20:36:46.493Z,4.60
2022-11-19T20:39:14.982Z,4.60
2022-11-19T20:42:00.746Z,4.60
2022-11-19T20:44:28.982Z,4.60
2022-11-19T20:46:58.861Z,4.60
2022-11-19T20:49:30.248Z,4.60
2022-11-19T20:52:00.461Z,4.60
2022-11-19T20:54:29.324Z,4.60
2022-11-19T20:56:58.133Z,4.60
2022-11-19T20:59:28.007Z,4.60
2022-11-19T21:01:57.744Z,4.60
2022-11-19T21:04:28.590Z,4.60
2022-11-19T21:06:56.974Z,4.60
2022-11-19T21:09:26.775Z,4.60
2022-11-19T21:11:55.450Z,4.60
2022-11-19T21:14:23.706Z,4.60
2022-11-19T21:16:52.005Z,4.60
2022-11-19T21:19:20.635Z,4.60
2022-11-19T21:21:49.261Z,4.60
2022-11-19T21:24:17.593Z,4.60
2022-11-19T21:26:47.284Z,4.60
2022-11-19T21:29:15.529Z,4.50
2022-11-19T21:31:45.701Z,4.60
2022-11-19T21:34:15.790Z,4.60
2022-11-19T21:36:45.239Z,4.60
2022-11-19T21:39:14.731Z,4.60
2022-11-19T21:41:43.419Z,4.60
2022-11-19T21:44:18.349Z,4.60
2022-11-19T21:46:48.166Z,4.60
2022-11-19T21:49:16.456Z,4.50
2022-11-19T21:51:44.701Z,4.50
2022-11-19T21:54:13.014Z,4.60
2022-11-19T21:56:41.249Z,4.60
2022-11-19T21:59:09.643Z,4.50
2022-11-19T22:01:39.332Z,4.50
2022-11-19T22:04:07.694Z,4.50
2022-11-19T22:06:35.978Z,4.50
2022-11-19T22:09:04.519Z,4.50
2022-11-19T22:11:32.916Z,4.50
2022-11-19T22:14:03.639Z,4.60
2022-11-19T22:16:35.131Z,4.60
2022-11-19T22:19:05.689Z,4.60
2022-11-19T22:21:34.472Z,4.60
2022-11-19T22:24:02.755Z,4.60
2022-11-19T22:26:31.247Z,4.60
2022-11-19T22:28:59.715Z,4.60
2022-11-19T22:31:28.146Z,4.60
2022-11-19T22:33:56.619Z,4.60
2022-11-19T22:36:26.274Z,4.70
2022-11-19T22:38:54.584Z,4.70
2022-11-19T22:41:23.374Z,4.70
2022-11-19T22:43:51.934Z,4.80
2022-11-19T22:46:21.235Z,4.70
2022-11-19T22:48:49.645Z,4.70
2022-11-19T22:51:20.187Z,4.70
2022-11-19T22:53:50.874Z,4.80
2022-11-19T22:56:22.519Z,4.80
2022-11-19T22:58:51.206Z,4.80
2022-11-19T23:01:22.837Z,4.80
2022-11-19T23:03:51.556Z,4.80
2022-11-19T23:06:20.031Z,4.80
2022-11-19T23:08:49.860Z,4.80
2022-11-19T23:11:41.642Z,4.80
2022-11-19T23:14:11.119Z,4.80
2022-11-19T23:16:40.491Z,4.80
2022-11-19T23:19:09.357Z,4.80
2022-11-19T23:21:38.170Z,4.80
2022-11-19T23:24:09.609Z,4.80
2022-11-19T23:26:38.129Z,4.80
2022-11-19T23:29:06.609Z,4.80
2022-11-19T23:31:36.656Z,4.80
2022-11-19T23:34:05.927Z,4.80
2022-11-19T23:36:35.714Z,4.80
2022-11-19T23:39:05.462Z,4.80
2022-11-19T23:41:35.903Z,4.80
2022-11-19T23:44:04.461Z,4.80
2022-11-19T23:46:34.188Z,4.80
2022-11-19T23:49:03.355Z,4.80
2022-11-19T23:51:34.113Z,4.80
2022-11-19T23:54:02.887Z,4.80
2022-11-19T23:56:32.628Z,4.80
2022-11-19T23:59:04.106Z,4.80
